Time;durP1;ratioP1;P1;durP2;ratioP2;P2;SDS_P1;SDS_P2;PMS_P1;PMS_P2;Temp;Humidity;BMP_temperature;BMP_pressure;BME280_temperature;BME280_humidity;BME280_pressure;Samples;Min_cycle;Max_cycle;Signal;HPM_P1;HPM_P2
2024/01/31 12:35:54;;;;;;;31.70;21.62;;;;;;;7.33;46.61;101644.63;4442294;32;152977;-75
2024/01/31 12:38:26;;;;;;;26.37;22.48;;;;;;;7.20;46.30;101650.28;4419327;32;20173;-74
2024/01/31 12:41:00;;;;;;;28.75;21.10;;;;;;;7.22;45.78;101646.69;4405241;32;20185;-74
2024/01/31 12:43:30;;;;;;;31.05;24.27;;;;;;;6.66;47.42;101643.78;4424205;27;20156;-74
2024/01/31 12:46:03;;;;;;;31.12;25.02;;;;;;;7.45;45.98;101642.56;4419079;32;20423;-74
2024/01/31 12:48:34;;;;;;;37.45;31.83;;;;;;;7.41;46.11;101638.28;4419012;32;20195;-74
2024/01/31 12:51:05;;;;;;;29.05;22.48;;;;;;;6.92;47.15;101636.97;4418680;32;20141;-74
2024/01/31 12:53:35;;;;;;;32.58;22.62;;;;;;;7.27;46.22;101638.66;4419105;32;20165;-74
2024/01/31 12:56:05;;;;;;;33.95;23.15;;;;;;;6.59;48.03;101642.22;4418624;32;20133;-74
2024/01/31 12:58:36;;;;;;;32.53;26.02;;;;;;;7.07;47.59;101636.56;4418584;32;20509;-74
2024/01/31 13:01:06;;;;;;;34.40;24.95;;;;;;;7.19;47.91;101635.38;4418645;32;20152;-74
2024/01/31 13:03:35;;;;;;;39.50;23.60;;;;;;;7.01;47.90;101631.44;4418510;32;20200;-74
2024/01/31 13:06:07;;;;;;;32.22;23.58;;;;;;;6.98;47.93;101627.16;4418611;32;20157;-74
2024/01/31 13:08:41;;;;;;;33.58;25.08;;;;;;;6.89;48.54;101624.75;4418453;32;20137;-75
2024/01/31 13:11:12;;;;;;;38.75;24.50;;;;;;;6.96;48.87;101612.28;4419104;32;20176;-74
2024/01/31 13:13:44;;;;;;;27.40;22.95;;;;;;;7.05;48.20;101610.25;4429844;27;20152;-74
2024/01/31 13:16:13;;;;;;;30.00;22.98;;;;;;;7.38;47.27;101611.06;4418437;32;20492;-74
2024/01/31 13:18:43;;;;;;;30.62;24.23;;;;;;;7.67;46.51;101619.03;4418566;32;20160;-74
2024/01/31 13:21:13;;;;;;;33.60;24.70;;;;;;;7.79;46.41;101616.03;4418403;32;20153;-74
2024/01/31 13:23:43;;;;;;;30.30;22.58;;;;;;;6.47;48.60;101622.31;4418513;32;20172;-74
2024/01/31 13:26:14;;;;;;;29.05;22.62;;;;;;;6.96;48.14;101614.91;4418649;32;20161;-74
2024/01/31 13:28:44;;;;;;;32.80;22.35;;;;;;;7.36;46.63;101620.81;4418527;32;20145;-74
2024/01/31 13:31:13;;;;;;;31.92;24.25;;;;;;;6.82;48.05;101610.00;4418401;32;20417;-74
2024/01/31 13:33:46;;;;;;;37.13;24.48;;;;;;;6.80;48.27;101609.19;4418367;32;20156;-74
2024/01/31 13:36:16;;;;;;;48.10;33.45;;;;;;;7.03;48.16;101608.56;4418292;32;20145;-74
2024/01/31 13:38:46;;;;;;;32.55;24.45;;;;;;;6.30;49.40;101601.66;4418474;32;20157;-75
2024/01/31 13:41:15;;;;;;;31.52;22.95;;;;;;;6.23;49.22;101602.72;4418921;32;20173;-74
2024/01/31 13:43:44;;;;;;;32.40;24.17;;;;;;;5.56;50.95;101604.22;4422942;27;20153;-74
2024/01/31 13:46:14;;;;;;;32.00;22.73;;;;;;;6.23;49.35;101596.59;4412482;32;20165;-74
2024/01/31 13:48:43;;;;;;;34.53;23.55;;;;;;;6.10;49.74;101604.78;4408242;32;20129;-74
2024/01/31 13:51:14;;;;;;;34.67;22.02;;;;;;;6.52;48.79;101593.22;4408511;32;20413;-74
2024/01/31 13:53:51;;;;;;;32.25;23.80;;;;;;;6.72;48.47;101598.84;4408496;32;20177;-75
2024/01/31 13:56:21;;;;;;;29.85;23.90;;;;;;;6.76;48.61;101599.63;4408693;32;20149;-74
2024/01/31 13:58:51;;;;;;;35.13;25.88;;;;;;;6.68;48.95;101604.22;4408148;32;20152;-74
2024/01/31 14:01:21;;;;;;;30.98;23.90;;;;;;;6.94;48.39;101596.50;4408388;32;20177;-74
2024/01/31 14:03:50;;;;;;;33.83;23.42;;;;;;;7.10;48.40;101594.31;4408333;32;20149;-74
2024/01/31 14:06:19;;;;;;;32.20;26.17;;;;;;;7.00;48.85;101606.87;4408315;32;20157;-74
2024/01/31 14:08:52;;;;;;;33.42;25.33;;;;;;;6.84;49.33;101601.16;4408050;32;20168;-74
2024/01/31 14:11:21;;;;;;;48.10;29.08;;;;;;;6.70;50.21;101599.81;4408583;32;20148;-74
2024/01/31 14:13:50;;;;;;;38.28;24.87;;;;;;;6.92;49.69;101600.94;4419518;27;20429;-74
2024/01/31 14:16:19;;;;;;;39.38;24.92;;;;;;;7.07;49.48;101591.75;4407904;32;20165;-74
2024/01/31 14:18:49;;;;;;;30.17;23.33;;;;;;;7.07;49.03;101597.03;4408181;32;20126;-74
2024/01/31 14:21:18;;;;;;;29.87;23.27;;;;;;;6.67;49.85;101587.56;4407780;32;20136;-74
2024/01/31 14:23:55;;;;;;;31.55;23.87;;;;;;;6.65;49.51;101578.81;4407928;32;20169;-74
2024/01/31 14:26:37;;;;;;;31.27;25.35;;;;;;;6.62;50.13;101582.41;4408401;32;20467;-74
2024/01/31 14:29:06;;;;;;;32.67;24.87;;;;;;;7.05;49.25;101583.03;4407689;32;20163;-74
2024/01/31 14:31:35;;;;;;;30.10;22.25;;;;;;;7.40;48.80;101587.28;4408143;32;20181;-74
2024/01/31 14:34:06;;;;;;;34.03;25.65;;;;;;;7.29;48.36;101579.72;4407849;32;20137;-74
2024/01/31 14:36:39;;;;;;;31.87;23.50;;;;;;;7.20;48.69;101573.81;4408047;32;20412;-74
2024/01/31 14:39:10;;;;;;;29.67;21.90;;;;;;;7.31;48.51;101577.88;4407626;32;20149;-74
2024/01/31 14:41:41;;;;;;;33.38;23.40;;;;;;;7.21;48.74;101583.47;4407969;32;20402;-75
2024/01/31 14:44:15;;;;;;;30.12;22.80;;;;;;;7.20;48.43;101574.69;4419299;27;20160;-74
2024/01/31 14:46:44;;;;;;;30.77;24.00;;;;;;;7.28;48.30;101580.59;4407748;32;20153;-74
2024/01/31 14:49:13;;;;;;;31.30;23.73;;;;;;;7.54;48.06;101581.63;4407843;32;20205;-74
2024/01/31 14:51:43;;;;;;;32.95;23.10;;;;;;;7.48;48.18;101585.28;4407774;32;20409;-74
2024/01/31 14:54:14;;;;;;;30.20;22.95;;;;;;;7.45;48.30;101584.53;4407910;32;20133;-74
2024/01/31 14:56:47;;;;;;;30.60;22.73;;;;;;;7.43;48.34;101586.34;4407595;32;20173;-74
2024/01/31 14:59:17;;;;;;;31.77;24.35;;;;;;;7.42;48.59;101584.62;4407451;32;20192;-74
2024/01/31 15:01:49;;;;;;;28.65;22.35;;;;;;;7.29;48.98;101582.34;4407948;32;20149;-74
2024/01/31 15:04:18;;;;;;;28.80;22.40;;;;;;;7.40;48.77;101576.75;4407530;32;20142;-74
2024/01/31 15:06:47;;;;;;;30.65;24.33;;;;;;;7.46;48.70;101576.56;4407836;32;20192;-74
2024/01/31 15:09:18;;;;;;;35.75;24.83;;;;;;;7.49;48.66;101576.50;4394116;32;20165;-74
2024/01/31 15:11:47;;;;;;;32.35;24.65;;;;;;;7.41;48.93;101572.34;4412751;27;20459;-75
2024/01/31 15:14:17;;;;;;;34.38;24.95;;;;;;;7.52;48.84;101564.97;4408067;32;20470;-74
2024/01/31 15:16:46;;;;;;;33.80;25.40;;;;;;;7.64;48.48;101560.19;4407499;32;20157;-74
2024/01/31 15:19:15;;;;;;;33.85;25.20;;;;;;;7.33;49.22;101562.87;4407552;32;20136;-74
2024/01/31 15:21:44;;;;;;;34.55;25.95;;;;;;;7.30;49.42;101568.25;4407718;32;20405;-74
2024/01/31 15:24:14;;;;;;;37.33;25.35;;;;;;;7.23;49.54;101571.97;4407751;32;20136;-74
2024/01/31 15:26:45;;;;;;;38.60;26.20;;;;;;;7.34;49.34;101561.97;4407426;32;20196;-74
2024/01/31 15:29:14;;;;;;;36.72;26.48;;;;;;;7.22;49.60;101574.66;4408090;32;20153;-75
2024/01/31 15:31:46;;;;;;;36.72;27.52;;;;;;;7.26;49.67;101571.03;4407610;32;20180;-74
2024/01/31 15:34:15;;;;;;;39.65;27.15;;;;;;;6.95;50.51;101574.50;4407698;32;20145;-74
2024/01/31 15:36:46;;;;;;;35.15;29.05;;;;;;;6.94;50.54;101564.03;4407494;32;20168;-74
2024/01/31 15:39:18;;;;;;;43.33;27.95;;;;;;;7.06;50.19;101572.44;4407512;32;20160;-75
2024/01/31 15:41:49;;;;;;;38.80;28.62;;;;;;;7.03;50.15;101567.25;4412164;27;20149;-74
2024/01/31 15:44:21;;;;;;;39.53;29.00;;;;;;;7.04;50.42;101578.66;4407901;32;20465;-74
2024/01/31 15:46:51;;;;;;;39.97;30.12;;;;;;;7.08;50.19;101581.16;4407483;32;20145;-74
2024/01/31 15:49:20;;;;;;;39.17;29.65;;;;;;;7.10;50.22;101583.78;4407800;32;20145;-74
2024/01/31 15:51:53;;;;;;;40.65;27.90;;;;;;;6.94;50.65;101575.44;4407488;32;20142;-75
2024/01/31 15:54:27;;;;;;;40.25;29.40;;;;;;;6.85;50.89;101575.66;4407648;32;20148;-74
2024/01/31 15:57:03;;;;;;;43.10;29.15;;;;;;;6.84;51.02;101573.94;4407565;32;20154;-75
2024/01/31 15:59:33;;;;;;;41.67;29.90;;;;;;;6.81;51.27;101576.66;4407994;32;20149;-75
2024/01/31 16:02:03;;;;;;;43.40;28.85;;;;;;;6.80;51.35;101572.28;4407797;32;20172;-74
2024/01/31 16:04:32;;;;;;;40.40;29.58;;;;;;;6.87;51.14;101568.59;4407811;32;20421;-74
2024/01/31 16:07:02;;;;;;;42.38;30.80;;;;;;;6.82;51.17;101575.75;4407638;32;20145;-74
2024/01/31 16:09:32;;;;;;;41.42;27.20;;;;;;;6.74;51.62;101580.38;4407362;32;20145;-75
2024/01/31 16:12:03;;;;;;;39.45;29.60;;;;;;;6.83;51.46;101580.97;4412269;27;20181;-74
2024/01/31 16:14:33;;;;;;;42.80;28.52;;;;;;;6.95;51.13;101578.91;4408158;32;20413;-74
2024/01/31 16:17:02;;;;;;;41.17;30.08;;;;;;;6.92;51.16;101581.63;4407494;32;20153;-75
2024/01/31 16:19:32;;;;;;;38.35;29.33;;;;;;;6.78;51.39;101580.25;4407268;32;20160;-75
2024/01/31 16:22:01;;;;;;;41.45;28.67;;;;;;;6.81;51.52;101576.66;4407040;32;20149;-74
2024/01/31 16:24:32;;;;;;;36.13;28.35;;;;;;;6.75;51.66;101574.19;4407045;32;20415;-74
2024/01/31 16:27:01;;;;;;;37.50;29.12;;;;;;;6.68;51.86;101576.13;4407040;32;20144;-74
2024/01/31 16:29:32;;;;;;;43.20;29.20;;;;;;;6.76;51.80;101575.91;4407440;32;20172;-74
2024/01/31 16:35:21;;;;;;;122.60;59.10;;;;;;;6.67;52.22;101584.94;4407061;32;20392;-74
2024/01/31 16:37:52;;;;;;;79.43;44.92;;;;;;;6.60;52.30;101589.47;4406980;32;20164;-74
2024/01/31 16:40:24;;;;;;;124.95;66.40;;;;;;;6.65;52.19;101582.34;4397689;27;20153;-74
2024/01/31 16:42:53;;;;;;;89.82;50.80;;;;;;;6.74;51.93;101578.59;4406975;32;20165;-74
2024/01/31 16:45:26;;;;;;;75.03;44.60;;;;;;;6.60;52.13;101581.56;4406340;32;20153;-74
2024/01/31 16:47:56;;;;;;;76.25;42.30;;;;;;;6.54;52.32;101573.84;4393232;32;20478;-74
2024/01/31 16:50:25;;;;;;;79.25;41.50;;;;;;;6.64;52.18;101577.09;4406076;32;20137;-74
2024/01/31 16:52:55;;;;;;;76.45;42.90;;;;;;;6.62;51.93;101571.03;4412952;32;20144;-74
2024/01/31 16:55:24;;;;;;;57.95;37.40;;;;;;;6.54;52.04;101576.50;4420317;32;20168;-74
2024/01/31 16:57:54;;;;;;;53.65;33.65;;;;;;;6.42;52.36;101578.59;4400065;32;20168;-74
2024/01/31 17:00:41;;;;;;;52.40;32.63;;;;;;;6.43;52.25;101581.16;4406675;32;20160;-74
2024/01/31 17:03:12;;;;;;;45.85;31.55;;;;;;;6.48;52.08;101575.78;4406723;32;20129;-74
2024/01/31 17:05:41;;;;;;;46.58;33.05;;;;;;;6.63;51.46;101570.97;4406272;32;20429;-75
2024/01/31 17:08:11;;;;;;;49.17;35.05;;;;;;;6.37;51.97;101579.56;4407491;32;20156;-74
2024/01/31 17:10:42;;;;;;;58.85;36.58;;;;;;;6.30;52.12;101563.94;4409881;27;20149;-74
2024/01/31 17:13:15;;;;;;;57.60;41.70;;;;;;;6.36;52.07;101567.28;4416388;32;20180;-74
2024/01/31 17:15:45;;;;;;;64.87;44.10;;;;;;;6.27;52.24;101564.88;4421591;32;20160;-74
2024/01/31 17:18:17;;;;;;;70.78;47.13;;;;;;;6.10;52.61;101567.06;4421530;32;20490;-74
2024/01/31 17:20:51;;;;;;;60.95;42.25;;;;;;;5.93;52.95;101575.34;4422197;32;20473;-74
2024/01/31 17:23:27;;;;;;;59.05;41.80;;;;;;;5.55;53.86;101582.31;4424186;32;20164;-74
2024/01/31 17:25:56;;;;;;;53.38;37.95;;;;;;;5.28;54.51;101581.12;4422846;32;20172;-74
2024/01/31 17:28:25;;;;;;;62.83;39.50;;;;;;;5.34;54.34;101575.72;4420561;32;20161;-74
2024/01/31 17:30:55;;;;;;;54.42;38.13;;;;;;;5.28;54.56;101580.25;4423378;32;20417;-74
2024/01/31 17:33:25;;;;;;;59.65;40.03;;;;;;;5.24;54.68;101586.47;4423694;32;20401;-74
2024/01/31 17:35:54;;;;;;;54.42;38.47;;;;;;;5.17;54.88;101583.97;4421277;32;20163;-74
2024/01/31 17:38:24;;;;;;;52.90;36.08;;;;;;;5.17;54.68;101583.09;4412650;32;20148;-74
2024/01/31 17:40:53;;;;;;;47.83;34.75;;;;;;;5.20;54.83;101584.81;4421222;27;20423;-74
2024/01/31 17:43:25;;;;;;;47.62;33.38;;;;;;;5.44;54.27;101576.41;4397400;32;20177;-74
2024/01/31 17:45:57;;;;;;;53.75;36.33;;;;;;;5.10;55.18;101576.22;4393172;32;20462;-74
2024/01/31 17:48:28;;;;;;;51.67;37.47;;;;;;;5.03;55.45;101575.50;4393145;32;20165;-74
2024/01/31 17:50:58;;;;;;;46.92;36.33;;;;;;;5.08;55.47;101564.91;4393397;32;20172;-74
2024/01/31 17:53:28;;;;;;;66.57;42.90;;;;;;;5.22;55.25;101568.09;4392652;32;20146;-75
2024/01/31 17:56:00;;;;;;;55.75;38.95;;;;;;;5.32;55.06;101571.41;4392837;32;20145;-74
2024/01/31 17:58:29;;;;;;;52.77;37.80;;;;;;;5.05;55.90;101568.44;4404393;32;20164;-74
2024/01/31 18:00:59;;;;;;;53.35;37.28;;;;;;;5.06;55.94;101561.44;4405264;32;20145;-74
2024/01/31 18:03:31;;;;;;;48.03;34.03;;;;;;;4.77;56.61;101564.63;4408098;32;20188;-75
2024/01/31 18:06:00;;;;;;;58.05;39.08;;;;;;;4.46;57.78;101561.69;4407648;32;20148;-74
2024/01/31 18:08:30;;;;;;;54.35;36.47;;;;;;;4.96;56.33;101552.88;4407183;32;20148;-75
2024/01/31 18:10:59;;;;;;;47.72;35.45;;;;;;;4.88;56.45;101566.16;4411827;27;20494;-74
2024/01/31 18:13:28;;;;;;;58.53;39.58;;;;;;;4.81;56.84;101551.41;4408220;32;20141;-74
2024/01/31 18:15:57;;;;;;;56.92;39.28;;;;;;;5.13;55.78;101553.38;4407909;32;20160;-74
2024/01/31 18:18:26;;;;;;;56.53;39.25;;;;;;;4.88;56.44;101553.03;4408144;32;20157;-74
2024/01/31 18:20:57;;;;;;;55.92;38.47;;;;;;;4.76;56.86;101549.78;4408140;32;20158;-74
2024/01/31 18:23:27;;;;;;;58.90;36.05;;;;;;;4.71;57.02;101546.34;4408111;32;20450;-75
2024/01/31 18:25:56;;;;;;;48.35;33.95;;;;;;;4.69;57.09;101542.00;4408708;32;20466;-74
2024/01/31 18:28:27;;;;;;;48.90;35.30;;;;;;;4.86;56.59;101548.69;4408079;32;20184;-74
2024/01/31 18:30:57;;;;;;;47.88;35.03;;;;;;;4.72;56.90;101553.34;4407758;32;20153;-74
2024/01/31 18:33:27;;;;;;;46.78;33.72;;;;;;;4.65;56.86;101542.94;4407454;32;20168;-74
2024/01/31 18:35:58;;;;;;;47.20;33.97;;;;;;;4.90;56.06;101540.72;4408066;32;20149;-74
2024/01/31 18:38:28;;;;;;;43.17;30.98;;;;;;;4.86;56.08;101546.91;4407884;32;20140;-75
2024/01/31 18:41:00;;;;;;;49.92;32.53;;;;;;;4.83;56.01;101541.75;4413263;27;20549;-74
2024/01/31 18:43:30;;;;;;;43.13;31.98;;;;;;;4.87;55.81;101547.78;4406788;32;20502;-74
2024/01/31 18:46:00;;;;;;;54.45;33.70;;;;;;;4.88;55.92;101539.03;4407958;32;20153;-74
2024/01/31 18:48:30;;;;;;;48.67;32.60;;;;;;;4.80;56.03;101533.06;4407826;32;20172;-74
2024/01/31 18:51:01;;;;;;;51.53;36.47;;;;;;;4.71;56.32;101520.94;4407917;32;20140;-74
2024/01/31 18:53:31;;;;;;;52.78;36.50;;;;;;;4.39;57.07;101519.78;4407919;32;20390;-74
2024/01/31 18:56:03;;;;;;;;;;;;;;;4.36;57.18;101517.25;4408495;32;20136;-74
2024/01/31 18:58:39;;;;;;;52.30;35.80;;;;;;;4.33;57.23;101517.28;4407979;32;20290;-74
2024/01/31 19:01:08;;;;;;;53.10;37.58;;;;;;;4.31;57.16;101526.06;4407906;32;20133;-74
2024/01/31 19:03:38;;;;;;;55.85;36.65;;;;;;;4.42;56.66;101529.38;4407782;32;20200;-74
2024/01/31 19:06:11;;;;;;;58.55;39.10;;;;;;;4.24;57.12;101521.81;4407788;32;20157;-74
2024/01/31 19:08:40;;;;;;;56.55;37.80;;;;;;;4.30;56.83;101504.22;4407896;32;20180;-74
2024/01/31 19:11:17;;;;;;;54.65;37.22;;;;;;;4.22;56.94;101505.25;4410965;27;20430;-74
2024/01/31 19:13:48;;;;;;;57.55;38.05;;;;;;;3.83;57.90;101511.13;4407877;32;20409;-74
2024/01/31 19:16:19;;;;;;;;;;;;;;;3.86;57.99;101505.81;4408065;32;20506;-74
2024/01/31 19:18:50;;;;;;;56.45;40.40;;;;;;;3.94;57.80;101498.69;4407873;32;20037;-74
2024/01/31 19:21:22;;;;;;;56.63;37.00;;;;;;;4.06;57.40;101495.00;4407829;32;20172;-75
2024/01/31 19:23:52;;;;;;;55.40;38.47;;;;;;;3.74;58.31;101497.28;4407721;32;20165;-74
2024/01/31 19:26:23;;;;;;;56.25;38.72;;;;;;;3.47;59.21;101488.09;4407839;32;20529;-74
2024/01/31 19:28:53;;;;;;;57.40;38.60;;;;;;;3.48;59.16;101492.44;4407327;32;20493;-74
2024/01/31 19:31:22;;;;;;;61.17;40.50;;;;;;;3.44;59.19;101510.84;4407435;32;20149;-74
2024/01/31 19:33:52;;;;;;;55.90;38.95;;;;;;;3.80;58.16;101526.03;4407521;32;20408;-74
2024/01/31 19:36:30;;;;;;;54.17;38.28;;;;;;;3.81;58.07;101538.28;4406125;32;20200;-74
2024/01/31 19:39:00;;;;;;;53.63;38.22;;;;;;;3.85;58.37;101538.19;4407685;32;20529;-74
2024/01/31 19:41:30;;;;;;;56.33;40.17;;;;;;;2.97;61.44;101532.41;4402895;27;20149;-74
2024/01/31 19:44:04;;;;;;;69.28;37.15;;;;;;;2.76;62.26;101535.25;4392262;32;20145;-74
2024/01/31 19:46:37;;;;;;;48.58;35.65;;;;;;;2.52;63.17;101531.16;4392680;32;20156;-74
2024/01/31 19:49:08;;;;;;;56.45;39.53;;;;;;;2.69;62.93;101530.09;4392621;32;20145;-74
2024/01/31 19:51:41;;;;;;;56.47;38.92;;;;;;;2.77;62.78;101522.16;4392318;32;20149;-74
2024/01/31 19:54:11;;;;;;;51.35;37.90;;;;;;;3.00;61.93;101521.03;4392325;32;20165;-74
2024/01/31 19:56:43;;;;;;;53.15;38.03;;;;;;;3.26;61.17;101518.94;4392291;32;20145;-74
2024/01/31 19:59:15;;;;;;;52.95;37.33;;;;;;;3.53;60.15;101514.22;4392585;32;20173;-74
2024/01/31 20:01:46;;;;;;;;;;;;;;;3.53;60.05;101515.09;4392453;32;20411;-74
2024/01/31 20:04:18;;;;;;;51.80;38.10;;;;;;;3.51;60.04;101511.59;4392209;32;20322;-74
2024/01/31 20:06:52;;;;;;;52.75;37.47;;;;;;;3.60;59.72;101513.22;4392262;32;20153;-74
2024/01/31 20:09:23;;;;;;;57.95;40.30;;;;;;;3.68;59.36;101519.22;4392071;32;20130;-74
2024/01/31 20:11:54;;;;;;;49.65;36.97;;;;;;;3.47;59.84;101512.53;4416785;27;20395;-74
2024/01/31 20:14:25;;;;;;;61.22;41.40;;;;;;;3.57;59.66;101501.03;4407157;32;20161;-74
2024/01/31 20:16:56;;;;;;;55.42;36.85;;;;;;;2.95;61.44;101511.47;4407500;32;20145;-74
2024/01/31 20:19:28;;;;;;;52.35;34.95;;;;;;;3.50;59.89;101506.41;4406781;32;20156;-74
2024/01/31 20:22:03;;;;;;;51.17;35.53;;;;;;;3.35;59.99;101512.72;4416998;32;20144;-74
2024/01/31 20:24:35;;;;;;;55.65;39.28;;;;;;;3.02;60.69;101507.03;4414802;32;20180;-74
2024/01/31 20:27:06;;;;;;;56.00;39.17;;;;;;;2.85;61.32;101495.88;4407104;32;20149;-74
2024/01/31 20:29:37;;;;;;;49.10;36.17;;;;;;;2.69;61.74;101495.19;4406965;32;20439;-74
2024/01/31 20:32:09;;;;;;;54.95;40.70;;;;;;;2.91;60.94;101480.97;4407462;32;20149;-74
2024/01/31 20:34:41;;;;;;;51.00;39.65;;;;;;;2.97;60.92;101482.66;4421134;32;20142;-74
2024/01/31 20:37:13;;;;;;;50.63;37.92;;;;;;;3.08;60.63;101482.50;4410668;32;20408;-74
2024/01/31 20:39:45;;;;;;;52.13;37.75;;;;;;;3.31;59.97;101476.97;4406470;32;20283;-74
2024/01/31 20:42:16;;;;;;;53.33;37.97;;;;;;;3.32;59.62;101470.81;4397556;27;20137;-74
2024/01/31 20:44:47;;;;;;;57.13;37.95;;;;;;;3.29;59.79;101466.53;4377788;32;20402;-74
2024/01/31 20:47:17;;;;;;;63.30;41.15;;;;;;;3.16;59.94;101457.94;4391886;32;20150;-74
2024/01/31 20:49:49;;;;;;;57.80;38.70;;;;;;;3.01;60.74;101455.56;4406655;32;20160;-75
2024/01/31 20:52:20;;;;;;;51.67;38.35;;;;;;;3.20;59.93;101443.91;4394635;32;20481;-74
2024/01/31 20:54:52;;;;;;;60.13;38.53;;;;;;;3.03;60.43;101440.69;4391495;32;20410;-75
2024/01/31 20:57:22;;;;;;;55.75;38.92;;;;;;;3.00;60.36;101437.22;4392926;32;20153;-74
2024/01/31 20:59:52;;;;;;;54.83;41.05;;;;;;;3.20;59.89;101437.81;4396290;32;20157;-74
2024/01/31 21:02:22;;;;;;;52.72;40.15;;;;;;;3.19;59.69;101420.37;4408777;32;20149;-75
2024/01/31 21:04:53;;;;;;;54.50;39.45;;;;;;;3.02;60.07;101430.22;4393197;32;20145;-75
2024/01/31 21:07:25;;;;;;;52.62;36.55;;;;;;;3.12;59.90;101430.06;4393138;32;20499;-74
2024/01/31 21:09:56;;;;;;;54.75;39.58;;;;;;;3.08;59.79;101431.00;4391695;32;20168;-75
2024/01/31 21:12:25;;;;;;;54.45;39.15;;;;;;;3.11;59.67;101420.47;4406031;27;20173;-75
2024/01/31 21:14:54;;;;;;;50.30;37.25;;;;;;;3.00;59.87;101421.50;4393090;32;20164;-75
2024/01/31 21:17:24;;;;;;;55.28;38.17;;;;;;;3.12;59.45;101416.97;4393246;32;20315;-74
2024/01/31 21:19:52;;;;;;;53.15;37.13;;;;;;;2.90;60.33;101420.78;4423645;32;20476;-75
2024/01/31 21:22:22;;;;;;;51.28;35.83;;;;;;;3.00;60.32;101424.13;4423449;32;20144;-75
2024/01/31 21:24:53;;;;;;;49.20;37.08;;;;;;;3.37;59.30;101425.34;4423404;32;20128;-75
2024/01/31 21:27:23;;;;;;;59.28;39.22;;;;;;;2.89;60.63;101406.84;4423462;32;20420;-75
2024/01/31 21:29:52;;;;;;;55.08;37.80;;;;;;;2.59;61.73;101415.06;4423262;32;20140;-75
2024/01/31 21:32:21;;;;;;;58.13;40.55;;;;;;;2.77;60.99;101409.59;4423682;32;20409;-75
2024/01/31 21:34:51;;;;;;;60.12;40.40;;;;;;;2.83;60.78;101414.75;4423415;32;20179;-75
2024/01/31 21:37:24;;;;;;;57.62;38.95;;;;;;;2.65;61.28;101404.50;4423532;32;20144;-75
2024/01/31 21:39:54;;;;;;;54.75;39.17;;;;;;;2.97;60.16;101396.25;4423524;32;20152;-75
2024/01/31 21:42:25;;;;;;;62.60;41.37;;;;;;;2.88;60.17;101388.50;4422150;27;20164;-75
2024/01/31 21:44:55;;;;;;;60.63;40.42;;;;;;;2.65;61.07;101386.19;4408398;32;20151;-75
2024/01/31 21:47:24;;;;;;;68.03;51.55;;;;;;;2.61;61.21;101388.00;4408414;32;20173;-75
2024/01/31 21:49:57;;;;;;;61.22;41.80;;;;;;;2.44;61.82;101369.88;4408704;32;20161;-75
2024/01/31 21:52:27;;;;;;;53.85;40.60;;;;;;;2.67;61.26;101379.22;4408442;32;20195;-75
2024/01/31 21:54:57;;;;;;;61.65;38.53;;;;;;;2.65;61.39;101392.31;4408796;32;20494;-75
2024/01/31 21:57:26;;;;;;;55.47;38.33;;;;;;;2.47;62.39;101410.84;4408620;32;20475;-75
2024/01/31 21:59:57;;;;;;;54.17;39.13;;;;;;;2.41;62.41;101417.00;4408097;32;20458;-75
2024/01/31 22:02:26;;;;;;;58.58;41.47;;;;;;;2.27;63.12;101403.25;4407991;32;20145;-75
2024/01/31 22:04:55;;;;;;;58.83;41.85;;;;;;;2.33;63.12;101415.38;4408762;32;20149;-75
2024/01/31 22:07:25;;;;;;;56.97;41.42;;;;;;;2.46;62.79;101404.75;4407935;32;20156;-75
2024/01/31 22:09:54;;;;;;;53.63;38.72;;;;;;;2.49;62.75;101416.91;4408247;32;20494;-75
2024/01/31 22:12:25;;;;;;;59.05;42.40;;;;;;;2.76;62.14;101431.41;4412967;27;20156;-75
2024/01/31 22:14:54;;;;;;;60.22;39.00;;;;;;;2.61;62.73;101427.28;4408091;32;20409;-75
2024/01/31 22:17:23;;;;;;;60.33;40.95;;;;;;;2.59;63.12;101422.94;4408745;32;20173;-75
2024/01/31 22:19:52;;;;;;;58.75;39.42;;;;;;;2.72;62.89;101414.03;4408073;32;20410;-75
2024/01/31 22:22:22;;;;;;;60.38;38.40;;;;;;;2.67;63.40;101419.31;4408153;32;20407;-75
2024/01/31 22:24:54;;;;;;;71.75;43.00;;;;;;;2.65;63.26;101399.28;4408273;32;20470;-75
2024/01/31 22:27:25;;;;;;;66.30;48.17;;;;;;;2.67;63.28;101384.44;4408140;32;20172;-75
2024/01/31 22:29:54;;;;;;;58.78;41.25;;;;;;;2.70;63.32;101384.41;4407824;32;20153;-75
2024/01/31 22:32:24;;;;;;;60.72;42.08;;;;;;;3.02;62.45;101385.72;4408056;32;20193;-75
2024/01/31 22:34:53;;;;;;;65.95;43.38;;;;;;;3.07;62.29;101379.50;4408577;32;20382;-75
2024/01/31 22:37:22;;;;;;;60.80;41.72;;;;;;;3.17;61.94;101380.25;4407846;32;20146;-75
2024/01/31 22:39:55;;;;;;;57.60;42.60;;;;;;;3.22;61.49;101388.03;4408111;32;20513;-75
2024/01/31 22:42:26;;;;;;;58.25;39.70;;;;;;;3.20;61.34;101385.44;4412708;27;20144;-75
2024/01/31 22:44:56;;;;;;;61.05;39.70;;;;;;;3.26;61.17;101382.72;4407992;32;20149;-75
2024/01/31 22:47:25;;;;;;;56.60;38.85;;;;;;;3.28;60.88;101375.69;4408097;32;20157;-75
2024/01/31 22:49:54;;;;;;;55.55;39.20;;;;;;;3.13;61.37;101370.72;4408404;32;20466;-75
2024/01/31 22:52:24;;;;;;;57.80;41.28;;;;;;;3.14;61.13;101383.78;4408005;32;20161;-75
2024/01/31 22:54:54;;;;;;;57.65;39.38;;;;;;;3.19;60.93;101371.47;4408105;32;20149;-75
2024/01/31 22:57:31;;;;;;;59.20;41.10;;;;;;;3.22;60.98;101354.84;4408153;32;20161;-75
2024/01/31 23:00:00;;;;;;;54.42;38.30;;;;;;;3.15;61.32;101364.53;4407991;32;20184;-75
2024/01/31 23:02:30;;;;;;;56.58;40.78;;;;;;;3.08;61.85;101355.03;4408033;32;20172;-75
2024/01/31 23:04:59;;;;;;;54.00;39.20;;;;;;;3.14;61.91;101346.25;4408137;32;20168;-75
2024/01/31 23:07:28;;;;;;;57.92;39.67;;;;;;;3.15;61.74;101351.44;4407871;32;20152;-75
2024/01/31 23:09:59;;;;;;;54.47;39.30;;;;;;;3.18;61.77;101354.03;4407750;32;20137;-75
2024/01/31 23:12:28;;;;;;;55.80;38.13;;;;;;;3.14;61.78;101348.87;4412641;27;20173;-75
2024/01/31 23:14:59;;;;;;;57.55;39.88;;;;;;;3.27;61.32;101349.53;4407941;32;20177;-75
2024/01/31 23:17:29;;;;;;;59.92;40.60;;;;;;;3.06;61.74;101327.19;4407805;32;20134;-75
2024/01/31 23:19:59;;;;;;;56.78;41.65;;;;;;;3.22;61.58;101330.41;4407407;32;20144;-75
2024/01/31 23:22:29;;;;;;;62.53;40.80;;;;;;;3.18;61.63;101322.59;4407867;32;20169;-75
2024/01/31 23:24:58;;;;;;;54.53;38.25;;;;;;;3.14;61.59;101314.81;4407825;32;20192;-75
2024/01/31 23:27:28;;;;;;;54.90;39.35;;;;;;;3.20;61.39;101318.19;4407698;32;20124;-75
2024/01/31 23:29:58;;;;;;;55.08;40.25;;;;;;;3.22;61.28;101327.78;4407539;32;20173;-75
2024/01/31 23:32:28;;;;;;;59.92;40.45;;;;;;;3.44;60.42;101329.16;4407776;32;20153;-75
2024/01/31 23:34:58;;;;;;;56.97;39.58;;;;;;;3.13;61.26;101319.19;4407916;32;20157;-76
2024/01/31 23:37:27;;;;;;;61.20;41.53;;;;;;;3.53;60.26;101322.91;4407654;32;20172;-75
2024/01/31 23:39:57;;;;;;;62.20;41.92;;;;;;;3.29;60.84;101321.56;4407725;32;20129;-75
2024/01/31 23:42:26;;;;;;;54.35;40.55;;;;;;;3.30;61.03;101318.06;4412144;27;20149;-75
2024/01/31 23:44:55;;;;;;;62.83;41.03;;;;;;;3.25;61.52;101319.88;4393631;32;20141;-75
2024/01/31 23:47:27;;;;;;;61.67;40.28;;;;;;;3.32;61.54;101316.25;4407220;32;20137;-76
2024/01/31 23:49:58;;;;;;;63.17;42.05;;;;;;;2.54;63.67;101326.19;4392550;32;20193;-75
2024/01/31 23:52:28;;;;;;;62.55;43.87;;;;;;;3.25;61.90;101312.91;4392535;32;20154;-75
2024/01/31 23:54:57;;;;;;;56.17;39.05;;;;;;;3.33;61.77;101313.62;4392355;32;20168;-75
2024/01/31 23:57:26;;;;;;;64.07;42.25;;;;;;;3.47;61.52;101305.53;4392521;32;20612;-75
2024/01/31 23:59:56;;;;;;;60.30;41.30;;;;;;;3.39;61.97;101296.94;4392222;32;20133;-75
